Impacts TAF Board INFO
FOR SITUATIONAL AWARENESS. NOT TO BE USED FOR FLIGHT PLANNING PURPOSES.
IDs:

KCLE - Cleveland/Hopkins In, OH, US

Issued at 2041 UTC 19 Feb 2017
Updated at 2101 UTC 19 Feb 2017
Potential Impact None Slight Moderate High
Time2051Z 19/21Z 19/22Z 19/23Z 20/00Z 20/01Z 20/02Z 20/03Z 20/04Z 20/05Z 20/06Z 20/07Z 20/08Z 20/09Z
Type OBS PRVL PRVL PRVL PRVL PRVL PRVL PRVL PRVL PRVL PRVL PRVL PRVL PRVL
VIS 10 >6 >6 >6 >6 >6 >6 >6 >6 >6 >6 >6 >6 >6
CIG -- -- -- -- -- -- -- -- -- -- -- -- -- --
Cover CLR SCT SCT SKC SKC SKC SKC SKC SKC SKC SCT SCT SCT SCT
FltCat VFR VFR VFR VFR VFR VFR VFR VFR VFR VFR VFR VFR VFR VFR
WX -- -- -- -- -- -- -- -- -- -- -- -- -- --
WDir 290 280 280 360 360 360 360 360 360 360 70 70 70 70
WSpd 14 10 10 5 5 5 5 5 5 5 3 3 3 3
WGst -- -- -- -- -- -- -- -- -- -- -- -- -- --

Raw TAF
KCLE 192041Z 1921/2024 28010KT P6SM SCT250
  FM192300 36005KT P6SM SKC
  FM200600 07003KT P6SM SCT250
  FM201200 09007KT P6SM BKN250


Raw METAR
KCLE 192051Z 29014KT 10SM CLR 17/M01 A3005 RMK AO2 SLP176 T01671011 53007
KCLE 191951Z 27013G20KT 10SM CLR 17/M01 A3003 RMK AO2 SLP168 T01721006
KCLE 191851Z 30011KT 10SM CLR 18/00 A3002 RMK AO2 SLP164 T01780000
KCLE 191751Z 29013KT 10SM FEW250 17/01 A3002 RMK AO2 SLP167 T01670006 10167 20067 50008

METAR Board
Radar Display
Forecast Discussion

FOR SITUATIONAL AWARENESS. NOT TO BE USED FOR FLIGHT PLANNING PURPOSES.

Page loaded:  21:01 UTC  |   01:01 PM Pacific  |   02:01 PM Mountain  |   03:01 PM Central  |   04:01 PM Eastern

 

ADVISORIES

FORECASTS

FORECASTS

OBSERVATIONS

USER TOOLS

ABOUT US